Airfield :
LOGIN :

Register | Disclaimer

   EN    FR    IT 

 










Legend :    VFR   Marginal VFR   IFR   Intensive IFR   Very Intensive IFR
Visi :
Ceiling :
>= 8 km
>= 3000ft
5 to 8 km
1000 to 3000 ft
1500m to 5 km
500 to 1000 ft
800 to 1500m
200 to 500 ft
< 800m
< 200 ft
Symbols :   Thunderstorms  Fog  Heavy snow  Heavy precipitations  Wind > 20 kt
SIGMETs :     Misc.  Thunderstorms  Icing  Turbulence  Mountain Waves  Volcanic Ashes







- Airport Elevation : 238 ft
- IATA code : FAB
- Download approach charts


EGLF - Farnborough

CURRENT METAR :
  • 181420Z 06012KT 030V100 9999 FEW049 20/09 Q1022

EXPIRED METARs :
  • 181350Z AUTO 07013KT 040V110 9999 FEW049/// 20/09 Q1022
  • 181320Z AUTO 08013KT 9999 FEW045/// 20/10 Q1022
  • 181250Z AUTO 06012KT 020V110 9999 FEW033/// BKN047/// 20/09 Q1022
  • 181220Z AUTO 07012KT 040V120 9999 NCD 19/09 Q1022
  • 181150Z AUTO 06013KT 9999 NCD 19/09 Q1022
  • 181120Z AUTO 06011KT 9999 NCD 18/10 Q1022

TAF TAF EGLF
Valid from the 18 at 12:00 until the 18 at 21:00 UTC


181105Z 1812/1821 07009KT 7000 NSC
BECMG 1812/1814 CAVOK
PROB40
TEMPO 1820/1821 8000
ATIS : +44 09063 800 400 (*282)
No reported NOTAMs for that airfield.



MET'MAP, your aeronautical weather chart ! - Copyright ORBIFLY December 2007 - Disclaimer

ORBIFLY MET'MAP TEAM :

Programming & Development : Alexandra Zaïnal
Concept & Development : Baudouin d'Aumeries
Co-Development & Prog : Marc-Olivier Méhu
Technical & hardware support : Manuel Goepfert

Contact : metmap@orbifly.com




SOURCES & CREDITS :

   NOAA